Latest Weather Observations for Port Lincoln Airport

IDS60801

Issued at 10:11 pm CDT Friday 16 November 2018 (issued every 10 minutes, with the page automatically refreshed every 10 minutes)

About weather observations | Map of weather stations | Latest weather observations for SA | Other Formats
Station Details ID: 018192 Name: PORT LINCOLN AWS Lat: -34.60 Lon: 135.88 Height: 8.5 m
Data from the previous 72 hours. | See also: Recent months at Port Lincoln Airport
Date/Time
CDT
Temp
°C
App
Temp
°C
Dew
Point
°C
Rel
Hum
%
Delta-T
°C
Wind Press
QNH
hPa
Press
MSL
hPa
Rain since
9am
mm
Dir  Spd
km/h
Gust
km/h
Spd
kts
Gust
kts
16/10:00pm 15.1 11.1 10.5 74 2.4 SSE 22 28 12 15 1024.5 1024.5 0.0
16/09:30pm 15.3 10.4 9.9 70 2.8 SSE 26 33 14 18 1024.2 1024.2 0.0
16/09:00pm 15.5 10.8 9.4 67 3.1 SSE 24 32 13 17 1024.1 1024.1 0.0
16/08:30pm 15.8 11.1 9.2 65 3.4 SSE 24 32 13 17 1023.7 1023.7 0.0
16/08:00pm 16.4 11.8 9.8 65 3.5 S 24 32 13 17 1023.3 1023.3 0.0
16/07:30pm 17.2 12.2 9.6 61 4.0 S 26 33 14 18 1023.0 1023.0 0.0
16/07:00pm 17.9 13.0 10.0 60 4.2 S 26 33 14 18 1022.7 1022.7 0.0
16/06:30pm 18.8 13.9 10.1 57 4.6 S 26 33 14 18 1022.6 1022.6 0.0
16/06:00pm 19.6 14.5 10.6 56 4.9 S 28 35 15 19 1022.6 1022.6 0.0
16/05:30pm 20.2 15.4 10.3 53 5.3 S 26 33 14 18 1022.4 1022.4 0.0
16/05:00pm 19.9 15.0 9.8 52 5.4 SSE 26 33 14 18 1022.3 1022.3 0.0
16/04:30pm 19.4 14.5 10.1 55 5.0 SE 26 35 14 19 1022.3 1022.3 0.0
16/04:00pm 20.0 15.5 10.1 53 5.3 SE 24 32 13 17 1022.4 1022.4 0.0
16/03:30pm 19.8 15.8 9.1 50 5.6 SE 20 28 11 15 1022.5 1022.5 0.0
16/03:00pm 19.7 16.3 10.4 55 5.0 ESE 19 26 10 14 1022.7 1022.7 0.0
16/02:30pm 20.0 16.3 11.5 58 4.7 ESE 22 32 12 17 1022.8 1022.8 0.0
16/02:00pm 19.8 15.7 11.6 59 4.5 ENE 24 32 13 17 1023.0 1023.0 0.0
16/01:30pm 20.5 16.8 11.4 56 5.0 E 22 35 12 19 1023.3 1023.3 0.0
16/01:00pm 18.9 15.6 11.0 60 4.3 E 19 28 10 15 1023.3 1023.3 0.0
16/12:30pm 19.6 16.6 10.6 56 4.9 SE 17 26 9 14 1023.5 1023.5 0.0
16/12:00pm 19.4 16.0 10.7 57 4.7 ESE 19 26 10 14 1023.6 1023.6 0.0
16/11:30am 19.7 16.9 11.2 58 4.6 SE 17 24 9 13 1023.8 1023.8 0.0
16/11:00am 19.0 16.2 10.0 56 4.8 SE 15 24 8 13 1023.7 1023.7 0.0
16/10:30am 18.5 15.8 10.3 59 4.4 SSE 15 20 8 11 1023.6 1023.6 0.0
16/10:00am 18.0 15.4 9.4 57 4.5 SSE 13 19 7 10 1023.4 1023.4 0.0
16/09:30am 18.1 16.4 11.2 64 3.7 SE 11 17 6 9 1023.2 1023.2 0.0
16/09:00am 17.6 15.9 11.2 66 3.5 SE 11 19 6 10 1023.1 1023.1 0.0
16/08:30am 17.0 16.2 11.1 68 3.2 E 6 11 3 6 1022.7 1022.7 0.0
16/08:00am 14.8 15.4 11.8 82 1.6 CALM 0 6 0 3 1022.6 1022.6 0.0
16/07:30am 12.0 10.8 10.4 90 0.8 NW 7 9 4 5 1022.4 1022.4 0.0
16/07:00am 9.7 7.7 8.8 94 0.4 WNW 9 11 5 6 1022.3 1022.3 0.0
16/06:30am 8.4 5.4 7.8 96 0.3 WNW 13 15 7 8 1022.0 1022.0 0.0
16/06:00am 7.6 5.2 6.9 95 0.3 WNW 9 11 5 6 1021.5 1021.5 0.0
16/05:30am 7.9 5.2 7.3 96 0.3 WNW 11 17 6 9 1021.4 1021.4 0.0
16/05:00am 8.0 4.9 7.2 95 0.4 WNW 13 15 7 8 1021.2 1021.2 0.0
16/04:30am 7.4 5.3 6.5 94 0.4 WNW 7 11 4 6 1021.4 1021.4 0.0
16/04:00am 7.5 5.4 6.6 94 0.4 NW 7 9 4 5 1021.3 1021.3 0.0
16/03:30am 7.7 5.6 6.5 92 0.5 NW 7 9 4 5 1021.3 1021.3 0.0
16/03:00am 8.0 6.1 6.6 91 0.6 N 6 7 3 4 1021.4 1021.4 0.0
16/02:30am 8.4 7.7 6.9 90 0.7 CALM 0 2 0 1 1021.7 1021.7 0.0
16/02:00am 9.8 9.1 8.4 91 0.7 NE 2 7 1 4 1021.8 1021.8 0.0
16/01:30am 9.5 7.8 7.4 87 1.0 NE 6 7 3 4 1022.3 1022.3 0.0
16/01:00am 12.0 10.2 9.6 85 1.2 SE 9 11 5 6 1022.7 1022.7 0.0
16/12:30am 12.6 10.5 9.8 83 1.4 SE 11 13 6 7 1022.9 1022.9 0.0
16/12:00am 13.9 11.6 10.3 79 1.9 SE 13 17 7 9 1023.1 1023.1 0.0
 
Date/Time
CDT
Temp
°C
App
Temp
°C
Dew
Point
°C
Rel
Hum
%
Delta-T
°C
Wind Press
QNH
hPa
Press
MSL
hPa
Rain since
9am
mm
Dir  Spd
km/h
Gust
km/h
Spd
kts
Gust
kts
15/11:30pm 14.4 11.0 10.4 77 2.1 SE 19 24 10 13 1023.2 1023.2 0.0
15/11:00pm 14.2 11.6 10.6 79 1.9 SE 15 19 8 10 1023.5 1023.5 0.0
15/10:30pm 14.1 11.8 10.5 79 1.9 SE 13 17 7 9 1023.8 1023.8 0.0
15/10:00pm 14.3 11.0 9.7 74 2.4 SE 17 24 9 13 1023.8 1023.8 0.0
15/09:30pm 14.8 10.3 10.0 73 2.5 SE 24 30 13 16 1023.5 1023.5 0.0
15/09:00pm 15.0 10.1 10.0 72 2.6 SE 26 32 14 17 1023.4 1023.4 0.0
15/08:30pm 15.1 10.4 9.2 68 3.0 SSE 24 32 13 17 1023.2 1023.2 0.0
15/08:00pm 15.5 10.6 8.3 62 3.6 SE 24 32 13 17 1023.3 1023.3 0.0
15/07:30pm 16.4 11.3 7.6 56 4.4 SE 24 28 13 15 1023.4 1023.4 0.0
15/07:00pm 17.0 11.6 7.9 55 4.6 SE 26 30 14 16 1023.2 1023.2 0.0
15/06:30pm 17.7 12.5 7.2 50 5.2 SE 24 32 13 17 1023.2 1023.2 0.0
15/06:00pm 18.3 13.8 6.2 45 5.9 SE 19 26 10 14 1023.2 1023.2 0.0
15/05:30pm 19.1 15.4 7.8 48 5.8 SE 17 24 9 13 1023.2 1023.2 0.0
15/05:00pm 18.7 14.6 6.2 44 6.2 ESE 17 22 9 12 1023.2 1023.2 0.0
15/04:30pm 19.2 14.9 7.0 45 6.1 E 19 26 10 14 1023.3 1023.3 0.0
15/04:00pm 18.9 14.8 6.4 44 6.2 E 17 24 9 13 1023.5 1023.5 0.0
15/03:30pm 18.9 15.2 6.1 43 6.3 E 15 22 8 12 1023.7 1023.7 0.0
15/03:00pm 19.2 14.9 7.0 45 6.1 E 19 26 10 14 1024.0 1024.0 0.0
15/02:30pm 18.8 14.4 6.6 45 6.1 E 19 28 10 15 1024.5 1024.5 0.0
15/02:00pm 18.5 14.0 6.0 44 6.2 E 19 28 10 15 1024.7 1024.7 0.0
15/01:30pm 18.1 14.4 6.3 46 5.8 ESE 15 24 8 13 1025.2 1025.2 0.0
15/01:00pm 17.8 13.4 6.7 48 5.5 E 19 28 10 15 1025.5 1025.5 0.0
15/12:30pm 17.5 13.1 7.3 51 5.1 E 20 28 11 15 1025.6 1025.6 0.0
15/12:00pm 17.0 12.5 6.8 51 5.0 ENE 20 30 11 16 1025.8 1025.8 0.0
15/11:30am 18.3 13.5 5.8 44 6.1 E 20 28 11 15 1025.7 1025.7 0.0
15/11:00am 19.1 14.8 7.8 48 5.8 E 20 33 11 18 1025.7 1025.7 0.0
15/10:30am 16.6 12.5 6.1 50 5.1 SE 17 20 9 11 1025.8 1025.8 0.0
15/10:00am 17.6 13.0 6.5 48 5.5 ESE 20 32 11 17 1025.9 1025.9 0.0
15/09:30am 16.5 11.7 7.4 55 4.5 ESE 22 32 12 17 1026.0 1026.0 0.0
15/09:00am 16.1 10.5 7.3 56 4.3 ESE 26 33 14 18 1025.7 1025.7 0.0
15/08:30am 15.9 11.0 8.4 61 3.8 ESE 24 32 13 17 1025.3 1025.3 0.0
15/08:00am 15.4 10.6 8.9 65 3.3 ESE 24 30 13 16 1025.0 1025.0 0.0
15/07:30am 15.0 11.0 9.1 68 3.0 ESE 20 26 11 14 1024.8 1024.8 0.0
15/07:00am 14.7 11.2 8.9 68 2.9 ESE 17 24 9 13 1024.6 1024.6 0.0
15/06:30am 14.3 10.4 8.5 68 2.9 ESE 19 26 10 14 1024.1 1024.1 0.0
15/06:00am 14.4 10.6 9.0 70 2.7 ESE 19 22 10 12 1023.7 1023.7 0.0
15/05:30am 14.4 10.4 9.2 71 2.6 ESE 20 26 11 14 1023.6 1023.6 0.0
15/05:00am 14.3 10.4 9.5 73 2.5 SE 20 24 11 13 1023.2 1023.2 0.0
15/04:30am 14.0 9.8 9.8 76 2.2 SSE 22 26 12 14 1022.9 1022.9 0.0
15/04:00am 13.5 9.8 9.6 77 2.0 SSE 19 24 10 13 1022.9 1022.9 0.0
15/03:30am 13.3 9.9 9.2 76 2.1 SSE 17 24 9 13 1022.6 1022.6 0.0
15/03:00am 13.5 9.6 8.8 73 2.4 SSE 19 24 10 13 1022.5 1022.5 0.0
15/02:30am 13.7 9.6 8.5 71 2.6 SSE 20 24 11 13 1022.8 1022.8 0.0
15/02:00am 13.6 9.3 7.8 68 2.9 SSE 20 24 11 13 1023.0 1023.0 0.0
15/01:30am 13.6 9.5 7.8 68 2.8 SSE 19 24 10 13 1023.3 1023.3 0.0
15/01:00am 13.7 10.1 8.3 70 2.7 SSE 17 26 9 14 1023.5 1023.5 0.0
15/12:30am 14.1 9.9 8.3 68 2.9 SSE 20 28 11 15 1023.4 1023.4 0.0
15/12:00am 14.4 10.0 9.0 70 2.7 SSE 22 28 12 15 1023.5 1023.5 0.0
 
Date/Time
CDT
Temp
°C
App
Temp
°C
Dew
Point
°C
Rel
Hum
%
Delta-T
°C
Wind Press
QNH
hPa
Press
MSL
hPa
Rain since
9am
mm
Dir  Spd
km/h
Gust
km/h
Spd
kts
Gust
kts
14/11:30pm 13.8 9.8 8.4 70 2.7 SSE 19 24 10 13 1023.5 1023.5 0.0
14/11:00pm 14.1 9.9 8.3 68 2.9 SSE 20 26 11 14 1023.5 1023.5 0.0
14/10:30pm 14.2 9.6 8.2 67 3.0 SSE 22 28 12 15 1023.5 1023.5 0.0
14/10:00pm 14.6 9.6 7.9 64 3.3 SSE 24 30 13 16 1023.4 1023.4 0.0
14/09:30pm 14.4 9.7 7.7 64 3.3 S 22 26 12 14 1023.0 1023.0 0.0
14/09:00pm 13.5 10.5 7.7 68 2.8 SSW 13 17 7 9 1022.9 1022.9 0.0
14/08:30pm 14.4 10.7 7.9 65 3.2 SSW 17 20 9 11 1022.6 1022.6 0.0
14/08:00pm 15.1 11.1 8.1 63 3.5 SSW 19 28 10 15 1022.2 1022.2 0.0
14/07:30pm 15.8 10.9 8.3 61 3.8 S 24 30 13 16 1021.9 1021.9 0.0
14/07:00pm 16.5 10.6 7.7 56 4.4 S 28 33 15 18 1021.7 1021.7 0.0
14/06:30pm 17.4 11.5 7.7 53 4.9 S 28 37 15 20 1021.3 1021.3 0.0
14/06:00pm 18.1 11.6 8.1 52 5.1 S 32 39 17 21 1021.0 1021.0 0.0
14/05:30pm 17.8 11.5 8.9 56 4.6 S 32 43 17 23 1020.9 1020.9 0.0
14/05:00pm 18.2 12.3 9.0 55 4.8 SSW 30 41 16 22 1020.7 1020.7 0.0
14/04:30pm 21.2 15.1 8.1 43 6.8 SW 30 39 16 21 1020.2 1020.2 0.0
14/04:00pm 19.7 14.9 8.7 49 5.7 SW 24 35 13 19 1020.1 1020.1 0.0
14/03:30pm 19.3 13.3 10.8 58 4.6 S 33 44 18 24 1020.1 1020.1 0.0
14/03:00pm 20.4 15.9 9.9 51 5.6 SSW 24 33 13 18 1019.9 1019.9 0.0
14/02:30pm 19.4 13.7 11.2 59 4.5 SSE 32 41 17 22 1019.5 1019.5 0.0
14/02:00pm 19.3 13.9 12.1 63 4.0 S 32 41 17 22 1019.5 1019.5 0.0
14/01:30pm 20.9 16.8 11.3 54 5.3 SW 24 32 13 17 1019.5 1019.5 0.0
14/01:00pm 20.3 16.7 10.4 53 5.4 SW 20 28 11 15 1019.4 1019.4 0.0
14/12:30pm 19.9 15.9 10.3 54 5.2 SW 22 33 12 18 1019.5 1019.5 0.0
14/12:00pm 19.8 16.0 11.0 57 4.8 WSW 22 32 12 17 1019.4 1019.4 0.0
14/11:30am 19.2 14.7 11.3 60 4.3 SW 26 35 14 19 1019.5 1019.5 0.0
14/11:00am 18.5 14.3 12.3 67 3.4 WSW 26 35 14 19 1019.3 1019.3 0.0
14/10:30am 17.4 13.6 12.5 73 2.7 SW 24 32 13 17 1019.2 1019.2 0.0
14/10:00am 18.1 14.3 11.0 63 3.8 WSW 22 30 12 16 1018.9 1018.9 0.0
14/09:30am 18.8 16.1 11.6 63 3.9 WSW 17 24 9 13 1018.7 1018.7 0.0
14/09:00am 17.7 16.2 10.6 63 3.8 SW 9 15 5 8 1018.5 1018.5 0.2
14/08:30am 16.9 15.6 11.4 70 3.0 W 9 17 5 9 1018.2 1018.2 0.2
14/08:00am 15.7 13.7 11.5 76 2.3 WSW 13 17 7 9 1018.1 1018.1 0.2
14/07:30am 14.4 12.9 11.9 85 1.3 WSW 11 15 6 8 1017.9 1017.9 0.2
14/07:03am 13.5 13.0 12.2 92 0.7 WNW 6 9 3 5 1017.7 1017.7 0.2
14/07:00am 13.4 12.7 12.1 92 0.7 NW 7 9 4 5 1017.7 1017.7 0.2
14/06:46am 13.1 12.4 12.0 93 0.6 W 7 9 4 5 1017.6 1017.6 0.2
14/06:31am 13.4 12.0 12.3 93 0.6 WSW 11 15 6 8 1017.6 1017.6 0.2
14/06:30am 13.4 12.0 12.3 93 0.6 WSW 11 15 6 8 1017.6 1017.6 0.2
14/06:24am 13.4 12.0 12.1 92 0.7 WSW 11 15 6 8 1017.5 1017.5 0.2
14/06:00am 13.8 11.1 11.8 88 1.1 W 17 20 9 11 1017.1 1017.1 0.2
14/05:30am 13.9 12.7 11.6 86 1.2 WSW 9 13 5 7 1016.7 1016.7 0.2
14/05:00am 14.0 12.8 11.5 85 1.3 W 9 11 5 6 1016.4 1016.4 0.2
14/04:30am 14.1 12.3 12.0 87 1.1 W 13 15 7 8 1016.3 1016.3 0.2
14/04:00am 13.8 11.6 12.2 90 0.9 W 15 19 8 10 1016.3 1016.3 0.2
14/03:30am 13.8 12.0 12.0 89 1.0 W 13 17 7 9 1016.3 1016.3 0.2
14/03:00am 14.1 12.3 12.0 87 1.1 W 13 17 7 9 1016.3 1016.3 0.2
14/02:30am 14.0 12.2 12.0 88 1.1 W 13 17 7 9 1016.1 1016.1 0.2
14/02:00am 14.8 12.9 11.8 82 1.6 WSW 13 17 7 9 1016.1 1016.1 0.2
14/01:30am 14.9 13.7 11.5 80 1.8 SW 9 13 5 7 1016.1 1016.1 0.2
14/01:00am 14.8 13.6 11.6 81 1.7 WSW 9 13 5 7 1016.4 1016.4 0.2
14/12:30am 14.3 12.7 10.1 76 2.2 WSW 9 11 5 6 1016.6 1016.6 0.2
14/12:00am 15.4 12.7 10.2 71 2.7 WSW 15 24 8 13 1016.5 1016.5 0.2
 
Date/Time
CDT
Temp
°C
App
Temp
°C
Dew
Point
°C
Rel
Hum
%
Delta-T
°C
Wind Press
QNH
hPa
Press
MSL
hPa
Rain since
9am
mm
Dir  Spd
km/h
Gust
km/h
Spd
kts
Gust
kts
13/11:30pm 15.6 14.0 11.4 76 2.3 WSW 11 15 6 8 1016.6 1016.6 0.2
13/11:00pm 15.7 14.1 11.7 77 2.2 SW 11 13 6 7 1016.5 1016.5 0.2
13/10:30pm 15.8 13.6 12.0 78 2.1 SW 15 20 8 11 1016.5 1016.5 0.2

Other Formats:

Comma delimited format used in spreadsheet applications
http://www.bom.gov.au/fwo/IDS60801/IDS60801.95661.axf

JavaScript Object Notation format (JSON) in row-major order
http://www.bom.gov.au/fwo/IDS60801/IDS60801.95661.json